createdAt,value
2019-03-30T00:01:26.801Z,12.53
2019-03-30T00:03:56.731Z,14.65
2019-03-30T00:06:26.877Z,12.65
2019-03-30T00:08:56.800Z,15.15
2019-03-30T00:11:26.762Z,20.37
2019-03-30T00:13:56.759Z,13.60
2019-03-30T00:16:26.853Z,12.47
2019-03-30T00:18:56.778Z,13.32
2019-03-30T00:21:26.804Z,17.57
2019-03-30T00:23:56.749Z,17.70
2019-03-30T00:26:27.888Z,16.20
2019-03-30T00:28:57.901Z,14.80
2019-03-30T00:31:27.836Z,17.90
2019-03-30T00:33:57.773Z,12.40
2019-03-30T00:36:27.857Z,16.60
2019-03-30T00:38:57.792Z,13.38
2019-03-30T00:41:27.720Z,14.20
2019-03-30T00:43:57.648Z,14.40
2019-03-30T00:46:27.596Z,11.53
2019-03-30T00:48:57.624Z,15.03
2019-03-30T00:51:27.560Z,15.90
2019-03-30T00:53:59.381Z,15.68
2019-03-30T00:56:29.331Z,14.23
2019-03-30T00:58:59.255Z,15.75
2019-03-30T01:01:29.201Z,13.50
2019-03-30T01:03:59.204Z,16.80
2019-03-30T01:06:29.152Z,13.78
2019-03-30T01:08:59.097Z,26.02
2019-03-30T01:11:29.112Z,14.65
2019-03-30T01:13:59.128Z,13.48
2019-03-30T01:16:29.156Z,20.57
2019-03-30T01:18:59.432Z,12.80
2019-03-30T01:21:29.372Z,10.82
2019-03-30T01:23:59.285Z,12.68
2019-03-30T01:26:29.244Z,13.32
2019-03-30T01:28:59.178Z,16.07
2019-03-30T01:31:31.010Z,15.58
2019-03-30T01:34:01.013Z,16.57
2019-03-30T01:36:30.972Z,14.78
2019-03-30T01:39:00.909Z,17.70
2019-03-30T01:41:30.832Z,15.08
2019-03-30T01:44:00.779Z,16.48
2019-03-30T01:46:30.704Z,15.28
2019-03-30T01:49:00.656Z,14.87
2019-03-30T01:51:30.582Z,15.78
2019-03-30T01:54:00.507Z,14.43
2019-03-30T01:56:30.471Z,15.55
2019-03-30T01:59:00.461Z,15.28
2019-03-30T02:01:30.486Z,12.35
2019-03-30T02:04:00.522Z,15.98
2019-03-30T02:06:30.556Z,16.20
2019-03-30T02:09:00.553Z,16.50
2019-03-30T02:11:30.500Z,15.05
2019-03-30T02:14:00.424Z,13.75
2019-03-30T02:16:32.155Z,12.88
2019-03-30T02:19:02.120Z,17.32
2019-03-30T02:21:32.125Z,15.43
2019-03-30T02:24:02.056Z,17.12
2019-03-30T02:26:32.009Z,17.23
2019-03-30T02:29:01.977Z,13.38
2019-03-30T02:31:31.901Z,13.15
2019-03-30T02:34:01.858Z,14.13
2019-03-30T02:36:31.809Z,17.20
2019-03-30T02:39:01.801Z,13.35
2019-03-30T02:41:31.676Z,15.63
2019-03-30T02:44:01.682Z,14.07
2019-03-30T02:46:31.697Z,13.10
2019-03-30T02:49:01.638Z,15.60
2019-03-30T02:51:31.657Z,14.35
2019-03-30T02:54:01.652Z,14.73
2019-03-30T02:56:31.597Z,18.37
2019-03-30T02:59:01.539Z,14.50
2019-03-30T03:01:31.487Z,13.32
2019-03-30T03:04:01.588Z,17.15
2019-03-30T03:06:31.584Z,14.00
2019-03-30T03:09:01.505Z,17.35
2019-03-30T03:11:31.607Z,15.48
2019-03-30T03:14:01.627Z,14.03
2019-03-30T03:16:31.621Z,15.48
2019-03-30T03:19:01.645Z,15.25
2019-03-30T03:21:31.700Z,18.62
2019-03-30T03:24:01.659Z,17.07
2019-03-30T03:26:31.796Z,14.53
2019-03-30T03:29:01.741Z,16.48
2019-03-30T03:31:31.769Z,12.07
2019-03-30T03:34:02.019Z,18.45
2019-03-30T03:36:32.157Z,15.18
2019-03-30T03:39:02.121Z,16.73
2019-03-30T03:41:32.053Z,13.60
2019-03-30T03:44:02.079Z,16.40
2019-03-30T03:46:32.140Z,13.95
2019-03-30T03:49:02.147Z,18.07
2019-03-30T03:51:32.953Z,13.80
2019-03-30T03:54:03.191Z,14.80
2019-03-30T03:56:35.174Z,16.05
2019-03-30T03:59:07.206Z,15.75
2019-03-30T04:01:38.029Z,13.30
2019-03-30T04:04:11.048Z,17.48
2019-03-30T04:06:41.483Z,19.07
2019-03-30T04:09:15.117Z,13.00
2019-03-30T04:11:46.602Z,14.78
2019-03-30T04:14:19.816Z,14.33
2019-03-30T04:16:49.866Z,16.17
2019-03-30T04:19:19.796Z,12.82
2019-03-30T04:21:49.673Z,18.35
2019-03-30T04:24:19.607Z,16.42
2019-03-30T04:26:49.608Z,10.72
2019-03-30T04:29:20.737Z,15.88
2019-03-30T04:31:50.659Z,11.73
2019-03-30T04:34:20.649Z,12.47
2019-03-30T04:36:50.627Z,15.40
2019-03-30T04:39:20.649Z,14.87
2019-03-30T04:41:50.570Z,14.65
2019-03-30T04:44:20.530Z,14.10
2019-03-30T04:46:50.620Z,14.05
2019-03-30T04:49:20.548Z,15.72
2019-03-30T04:51:57.525Z,20.55
2019-03-30T04:54:22.145Z,14.18
2019-03-30T04:56:52.124Z,18.65
2019-03-30T04:59:22.055Z,15.23
2019-03-30T05:01:51.983Z,12.55
2019-03-30T05:04:22.000Z,14.83
2019-03-30T05:06:52.080Z,17.17
2019-03-30T05:09:22.053Z,15.60
2019-03-30T05:11:51.977Z,17.60
2019-03-30T05:14:21.964Z,19.07
2019-03-30T05:16:51.891Z,15.93
2019-03-30T05:19:21.818Z,15.65
2019-03-30T05:21:51.828Z,18.95
2019-03-30T05:24:21.756Z,13.05
2019-03-30T05:26:51.639Z,12.60
2019-03-30T05:29:21.560Z,16.50
2019-03-30T05:31:51.480Z,14.47
2019-03-30T05:34:21.424Z,13.55
2019-03-30T05:36:54.224Z,15.60
2019-03-30T05:39:24.188Z,14.23
2019-03-30T05:41:54.112Z,14.23
2019-03-30T05:44:24.034Z,13.25
2019-03-30T05:46:54.056Z,12.60
2019-03-30T05:49:23.968Z,13.62
2019-03-30T05:51:53.916Z,13.20
2019-03-30T05:54:23.840Z,33.83
2019-03-30T05:56:55.140Z,14.85
2019-03-30T05:59:25.085Z,13.50
2019-03-30T06:01:55.093Z,15.45
2019-03-30T06:04:25.016Z,12.53
2019-03-30T06:06:55.013Z,12.82
2019-03-30T06:09:25.014Z,16.20
2019-03-30T06:11:54.968Z,11.65
2019-03-30T06:14:24.995Z,13.72
2019-03-30T06:16:54.931Z,16.82
2019-03-30T06:19:24.939Z,14.85
2019-03-30T06:21:54.952Z,12.30
2019-03-30T06:24:24.913Z,16.60
2019-03-30T06:26:54.908Z,12.70
2019-03-30T06:29:24.932Z,12.88
2019-03-30T06:31:54.932Z,13.18
2019-03-30T06:34:24.961Z,14.75
2019-03-30T06:36:54.992Z,11.83
2019-03-30T06:39:24.913Z,15.23
2019-03-30T06:41:54.835Z,12.03
2019-03-30T06:44:24.797Z,11.20
2019-03-30T06:46:54.797Z,13.18
2019-03-30T06:49:24.797Z,12.50
2019-03-30T06:51:54.768Z,14.30
2019-03-30T06:54:26.777Z,13.80
2019-03-30T06:56:56.843Z,14.68
2019-03-30T06:59:26.982Z,13.90
2019-03-30T07:01:57.189Z,21.15
2019-03-30T07:04:27.052Z,14.80
2019-03-30T07:06:58.120Z,13.72
2019-03-30T07:09:31.075Z,13.10
2019-03-30T07:12:02.980Z,11.73
2019-03-30T07:14:35.653Z,20.17
2019-03-30T07:17:07.089Z,13.65
2019-03-30T07:19:40.289Z,10.77
2019-03-30T07:22:10.316Z,12.82
2019-03-30T07:24:40.328Z,12.23
2019-03-30T07:27:10.454Z,10.88
2019-03-30T07:29:40.454Z,11.37
2019-03-30T07:32:10.461Z,11.90
2019-03-30T07:34:41.848Z,16.90
2019-03-30T07:37:11.928Z,13.40
2019-03-30T07:39:41.954Z,13.10
2019-03-30T07:42:11.898Z,13.37
2019-03-30T07:44:41.952Z,11.87
2019-03-30T07:47:12.049Z,12.53
2019-03-30T07:49:41.984Z,12.53
2019-03-30T07:52:12.000Z,10.90
2019-03-30T07:54:43.101Z,9.57
2019-03-30T07:57:17.171Z,14.43
2019-03-30T07:59:45.214Z,11.30
2019-03-30T08:02:15.587Z,16.40
2019-03-30T08:04:45.548Z,14.17
2019-03-30T08:07:15.465Z,12.90
2019-03-30T08:09:45.544Z,13.40
2019-03-30T08:12:15.500Z,15.90
2019-03-30T08:14:56.169Z,13.40
2019-03-30T08:17:26.136Z,12.13
2019-03-30T08:19:56.237Z,11.87
2019-03-30T08:22:26.162Z,15.73
2019-03-30T08:24:56.237Z,10.70
2019-03-30T08:27:26.256Z,13.10
2019-03-30T08:29:56.141Z,11.73
2019-03-30T08:32:26.065Z,17.07
2019-03-30T08:34:55.996Z,14.67
2019-03-30T08:37:26.120Z,15.80
2019-03-30T08:39:56.064Z,18.83
2019-03-30T08:42:25.994Z,15.07
2019-03-30T08:44:55.957Z,14.70
2019-03-30T08:47:25.972Z,15.73
2019-03-30T08:49:55.924Z,17.80
2019-03-30T08:52:25.883Z,15.80
2019-03-30T08:54:55.808Z,18.33
2019-03-30T08:57:25.793Z,19.43
2019-03-30T08:59:55.764Z,18.13
2019-03-30T09:02:25.701Z,16.77
2019-03-30T09:04:55.659Z,19.90
2019-03-30T09:07:25.676Z,16.97
2019-03-30T09:09:55.800Z,21.07
2019-03-30T09:12:25.852Z,23.17
2019-03-30T09:14:55.812Z,23.73
2019-03-30T09:17:25.825Z,22.80
2019-03-30T09:19:55.758Z,19.67
2019-03-30T09:22:25.684Z,20.20
2019-03-30T09:24:55.624Z,24.00
2019-03-30T09:27:25.564Z,22.90
2019-03-30T09:29:55.526Z,17.90
2019-03-30T09:32:25.461Z,25.87
2019-03-30T09:34:55.541Z,23.23
2019-03-30T09:37:25.500Z,23.00
2019-03-30T09:39:55.988Z,20.67
2019-03-30T09:42:26.000Z,21.17
2019-03-30T09:44:56.393Z,24.57
2019-03-30T09:47:26.416Z,21.03
2019-03-30T09:49:56.424Z,22.30
2019-03-30T09:52:26.492Z,20.60
2019-03-30T09:54:56.492Z,20.03
2019-03-30T09:57:26.424Z,22.37
2019-03-30T09:59:56.438Z,22.20
2019-03-30T10:02:26.464Z,24.20
2019-03-30T10:04:56.461Z,25.30
2019-03-30T10:07:26.420Z,29.80
2019-03-30T10:09:56.372Z,22.20
2019-03-30T10:12:26.314Z,24.03
2019-03-30T10:14:56.352Z,22.40
2019-03-30T10:17:26.453Z,24.90
2019-03-30T10:20:04.276Z,23.50
2019-03-30T10:22:28.124Z,21.80
2019-03-30T10:24:58.558Z,20.00
2019-03-30T10:27:28.707Z,22.23
2019-03-30T10:29:58.718Z,20.57
2019-03-30T10:32:28.725Z,23.90
2019-03-30T10:34:58.651Z,22.30
2019-03-30T10:37:28.739Z,22.77
2019-03-30T10:39:58.716Z,19.93
2019-03-30T10:42:28.660Z,21.50
2019-03-30T10:44:58.592Z,19.03
2019-03-30T10:47:28.472Z,20.63
2019-03-30T10:49:58.412Z,21.67
2019-03-30T10:52:28.381Z,20.60
2019-03-30T10:54:58.367Z,19.93
2019-03-30T10:57:28.404Z,22.60
2019-03-30T10:59:58.384Z,22.77
2019-03-30T11:02:28.376Z,24.67
2019-03-30T11:04:58.344Z,21.80
2019-03-30T11:07:28.351Z,23.10
2019-03-30T11:09:58.378Z,20.43
2019-03-30T11:12:28.392Z,21.47
2019-03-30T11:14:58.413Z,21.60
2019-03-30T11:17:28.437Z,22.40
2019-03-30T11:19:58.360Z,25.27
2019-03-30T11:22:28.288Z,20.77
2019-03-30T11:25:07.468Z,24.17
2019-03-30T11:27:29.992Z,22.17
2019-03-30T11:29:59.993Z,20.53
2019-03-30T11:32:29.923Z,18.30
2019-03-30T11:35:00.343Z,21.30
2019-03-30T11:37:30.395Z,22.33
2019-03-30T11:40:00.353Z,18.80
2019-03-30T11:42:30.358Z,26.30
2019-03-30T11:45:00.299Z,22.17
2019-03-30T11:47:30.412Z,22.17
2019-03-30T11:50:00.435Z,23.57
2019-03-30T11:52:31.555Z,21.83
2019-03-30T11:55:01.588Z,24.10
2019-03-30T11:57:31.588Z,19.40
2019-03-30T12:00:01.520Z,28.50
2019-03-30T12:02:31.489Z,22.60
2019-03-30T12:05:01.545Z,22.57
2019-03-30T12:07:31.400Z,20.70
2019-03-30T12:10:01.440Z,21.30
2019-03-30T12:12:31.440Z,20.10
2019-03-30T12:15:01.442Z,20.23
2019-03-30T12:17:31.588Z,22.80
2019-03-30T12:20:01.533Z,21.70
2019-03-30T12:22:31.580Z,19.20
2019-03-30T12:25:03.300Z,20.10
2019-03-30T12:27:33.235Z,19.40
2019-03-30T12:30:03.261Z,19.50
2019-03-30T12:32:33.265Z,23.53
2019-03-30T12:35:03.297Z,21.27
2019-03-30T12:37:33.328Z,21.73
2019-03-30T12:40:03.396Z,23.30
2019-03-30T12:42:33.362Z,21.40
2019-03-30T12:45:08.008Z,23.90
2019-03-30T12:47:38.082Z,20.97
2019-03-30T12:50:09.782Z,21.73
2019-03-30T12:52:39.736Z,22.33
2019-03-30T12:55:09.776Z,20.07
2019-03-30T12:57:39.715Z,20.43
2019-03-30T13:00:10.640Z,19.80
2019-03-30T13:02:40.584Z,23.50
2019-03-30T13:05:10.710Z,23.80
2019-03-30T13:07:40.784Z,22.17
2019-03-30T13:10:10.729Z,22.17
2019-03-30T13:12:40.769Z,24.03
2019-03-30T13:15:10.965Z,24.40
2019-03-30T13:17:40.936Z,18.23
2019-03-30T13:20:11.276Z,21.10
2019-03-30T13:22:41.202Z,22.03
2019-03-30T13:25:11.417Z,21.57
2019-03-30T13:27:41.454Z,20.67
2019-03-30T13:30:12.817Z,28.93
2019-03-30T13:32:42.905Z,26.17
2019-03-30T13:35:12.862Z,23.00
2019-03-30T13:37:42.868Z,24.37
2019-03-30T13:40:13.160Z,22.33
2019-03-30T13:42:43.425Z,28.00
2019-03-30T13:45:13.616Z,23.80
2019-03-30T13:47:43.629Z,23.53
2019-03-30T13:50:14.028Z,23.80
2019-03-30T13:52:43.980Z,24.70
2019-03-30T13:55:14.423Z,24.27
2019-03-30T13:57:44.411Z,23.67
2019-03-30T14:00:14.977Z,22.63
2019-03-30T14:02:45.940Z,20.60
2019-03-30T14:05:16.035Z,25.93
2019-03-30T14:07:46.049Z,23.47
2019-03-30T14:10:16.188Z,20.90
2019-03-30T14:12:46.228Z,22.13
2019-03-30T14:15:16.376Z,25.07
2019-03-30T14:17:46.435Z,22.67
2019-03-30T14:20:16.483Z,25.13
2019-03-30T14:22:46.493Z,26.93
2019-03-30T14:25:16.465Z,21.87
2019-03-30T14:27:47.612Z,29.73
2019-03-30T14:30:18.247Z,24.53
2019-03-30T14:32:48.281Z,20.73
2019-03-30T14:35:18.248Z,28.87
2019-03-30T14:37:48.383Z,25.10
2019-03-30T14:40:18.447Z,23.47
2019-03-30T14:42:48.473Z,22.77
2019-03-30T14:45:19.482Z,20.87
2019-03-30T14:47:49.552Z,21.50
2019-03-30T14:50:19.592Z,20.63
2019-03-30T14:52:49.630Z,21.70
2019-03-30T14:55:19.996Z,24.77
2019-03-30T14:57:49.936Z,21.70
2019-03-30T15:00:20.119Z,19.77
2019-03-30T15:02:50.281Z,22.43
2019-03-30T15:05:20.306Z,22.23
2019-03-30T15:07:50.274Z,22.13
2019-03-30T15:10:21.253Z,25.37
2019-03-30T15:12:51.284Z,24.17
2019-03-30T15:15:21.233Z,18.50
2019-03-30T15:17:51.284Z,20.97
2019-03-30T15:20:21.296Z,21.70
2019-03-30T15:22:51.235Z,23.10
2019-03-30T15:25:21.300Z,24.97
2019-03-30T15:27:51.300Z,22.50
2019-03-30T15:30:21.368Z,22.63
2019-03-30T15:32:51.416Z,23.13
2019-03-30T15:35:21.459Z,20.43
2019-03-30T15:37:51.488Z,23.90
2019-03-30T15:40:21.591Z,19.43
2019-03-30T15:42:51.635Z,25.53
2019-03-30T15:45:21.770Z,19.37
2019-03-30T15:47:51.744Z,22.87
2019-03-30T15:50:22.006Z,32.57
2019-03-30T15:52:52.047Z,22.00
2019-03-30T15:55:22.076Z,23.50
2019-03-30T15:57:52.099Z,19.13
2019-03-30T16:00:22.156Z,21.23
2019-03-30T16:02:52.675Z,24.93
2019-03-30T16:05:22.741Z,26.37
2019-03-30T16:07:52.778Z,21.90
2019-03-30T16:10:22.828Z,23.03
2019-03-30T16:12:52.821Z,21.70
2019-03-30T16:15:22.836Z,22.83
2019-03-30T16:17:52.828Z,25.23
2019-03-30T16:20:22.780Z,24.30
2019-03-30T16:22:52.708Z,27.13
2019-03-30T16:25:22.653Z,23.43
2019-03-30T16:27:52.616Z,25.33
2019-03-30T16:30:22.687Z,18.97
2019-03-30T16:32:52.721Z,20.33
2019-03-30T16:35:22.712Z,19.53
2019-03-30T16:37:52.650Z,23.03
2019-03-30T16:40:22.669Z,20.93
2019-03-30T16:42:52.629Z,20.50
2019-03-30T16:45:22.672Z,22.60
2019-03-30T16:47:52.588Z,22.80
2019-03-30T16:50:22.604Z,25.80
2019-03-30T16:52:52.572Z,18.47
2019-03-30T16:55:22.629Z,19.87
2019-03-30T16:57:52.627Z,19.83
2019-03-30T17:00:22.554Z,22.43
2019-03-30T17:02:52.513Z,24.00
2019-03-30T17:05:22.449Z,25.00
2019-03-30T17:07:52.408Z,26.43
2019-03-30T17:10:22.399Z,28.20
2019-03-30T17:12:52.730Z,18.33
2019-03-30T17:15:22.771Z,22.87
2019-03-30T17:17:52.785Z,24.13
2019-03-30T17:20:22.736Z,22.63
2019-03-30T17:22:52.725Z,20.53
2019-03-30T17:25:22.824Z,19.60
2019-03-30T17:27:58.704Z,17.23
2019-03-30T17:30:24.718Z,20.23
2019-03-30T17:32:54.758Z,18.40
2019-03-30T17:35:24.748Z,23.90
2019-03-30T17:37:54.705Z,21.70
2019-03-30T17:40:25.617Z,18.30
2019-03-30T17:42:55.584Z,21.60
2019-03-30T17:45:25.659Z,21.07
2019-03-30T17:47:55.657Z,16.50
2019-03-30T17:50:25.729Z,21.43
2019-03-30T17:52:55.863Z,18.97
2019-03-30T17:55:33.634Z,19.30
2019-03-30T17:58:11.954Z,24.20
2019-03-30T18:00:29.224Z,22.77
2019-03-30T18:02:59.164Z,18.93
2019-03-30T18:05:29.148Z,17.00
2019-03-30T18:08:01.744Z,23.67
2019-03-30T18:10:30.892Z,20.00
2019-03-30T18:13:00.912Z,20.00
2019-03-30T18:15:34.397Z,16.33
2019-03-30T18:18:02.659Z,18.93
2019-03-30T18:20:32.702Z,18.87
2019-03-30T18:23:02.768Z,23.40
2019-03-30T18:25:32.815Z,18.47
2019-03-30T18:28:02.796Z,19.10
2019-03-30T18:30:38.026Z,20.80
2019-03-30T18:33:08.160Z,19.37
2019-03-30T18:35:39.869Z,21.80
2019-03-30T18:38:12.756Z,30.80
2019-03-30T18:40:41.787Z,19.27
2019-03-30T18:43:11.788Z,24.73
2019-03-30T18:45:42.148Z,29.57
2019-03-30T18:48:13.664Z,20.23
2019-03-30T18:50:44.337Z,25.00
2019-03-30T18:53:14.635Z,22.17
2019-03-30T18:55:44.667Z,23.60
2019-03-30T18:58:14.612Z,27.47
2019-03-30T19:00:44.542Z,30.00
2019-03-30T19:03:14.795Z,20.20
2019-03-30T19:05:44.850Z,22.90
2019-03-30T19:08:14.926Z,26.63
2019-03-30T19:10:44.999Z,32.30
2019-03-30T19:13:15.035Z,20.90
2019-03-30T19:15:45.135Z,26.77
2019-03-30T19:18:15.227Z,26.77
2019-03-30T19:20:45.194Z,27.60
2019-03-30T19:23:15.231Z,27.53
2019-03-30T19:25:45.360Z,30.80
2019-03-30T19:28:15.314Z,25.20
2019-03-30T19:30:45.382Z,24.37
2019-03-30T19:33:15.336Z,29.97
2019-03-30T19:35:45.406Z,25.80
2019-03-30T19:38:15.445Z,29.67
2019-03-30T19:40:45.436Z,28.03
2019-03-30T19:43:15.443Z,21.07
2019-03-30T19:45:45.440Z,25.93
2019-03-30T19:48:15.412Z,25.87
2019-03-30T19:50:45.510Z,24.73
2019-03-30T19:53:15.551Z,26.83
2019-03-30T19:55:45.590Z,22.30
2019-03-30T19:58:15.607Z,26.37
2019-03-30T20:00:45.656Z,24.33
2019-03-30T20:03:15.725Z,21.20
2019-03-30T20:05:45.772Z,23.63
2019-03-30T20:08:15.786Z,32.80
2019-03-30T20:10:45.864Z,25.40
2019-03-30T20:13:15.908Z,29.03
2019-03-30T20:15:45.942Z,23.77
2019-03-30T20:18:15.965Z,25.80
2019-03-30T20:20:46.094Z,23.33
2019-03-30T20:23:16.135Z,20.57
2019-03-30T20:25:46.179Z,22.43
2019-03-30T20:28:16.239Z,21.80
2019-03-30T20:30:46.410Z,21.80
2019-03-30T20:33:16.447Z,22.63
2019-03-30T20:35:46.445Z,22.20
2019-03-30T20:38:16.440Z,29.93
2019-03-30T20:40:46.441Z,24.60
2019-03-30T20:43:16.412Z,20.20
2019-03-30T20:45:46.453Z,26.70
2019-03-30T20:48:17.115Z,20.70
2019-03-30T20:50:47.275Z,24.27
2019-03-30T20:53:17.961Z,23.67
2019-03-30T20:55:48.174Z,22.87
2019-03-30T20:58:19.331Z,26.57
2019-03-30T21:00:50.185Z,22.13
2019-03-30T21:03:20.902Z,22.53
2019-03-30T21:05:51.128Z,26.30
2019-03-30T21:08:21.853Z,25.03
2019-03-30T21:10:52.039Z,20.90
2019-03-30T21:13:22.017Z,21.83
2019-03-30T21:15:52.031Z,25.93
2019-03-30T21:18:22.076Z,22.20
2019-03-30T21:20:52.107Z,21.80
2019-03-30T21:23:22.184Z,28.60
2019-03-30T21:25:52.235Z,20.33
2019-03-30T21:28:22.287Z,22.67
2019-03-30T21:30:52.320Z,20.10
2019-03-30T21:33:22.358Z,23.30
2019-03-30T21:35:52.429Z,23.57
2019-03-30T21:38:22.421Z,27.43
2019-03-30T21:40:52.432Z,26.77
2019-03-30T21:43:22.400Z,22.20
2019-03-30T21:45:52.455Z,23.23
2019-03-30T21:48:22.456Z,22.90
2019-03-30T21:50:52.413Z,25.53
2019-03-30T21:53:22.336Z,22.23
2019-03-30T21:55:52.327Z,22.20
2019-03-30T21:58:22.379Z,24.40
2019-03-30T22:00:52.480Z,19.53
2019-03-30T22:03:22.467Z,22.50
2019-03-30T22:05:52.537Z,24.87
2019-03-30T22:08:22.715Z,23.20
2019-03-30T22:10:52.825Z,22.83
2019-03-30T22:13:22.861Z,23.23
2019-03-30T22:15:52.895Z,20.20
2019-03-30T22:18:22.963Z,21.77
2019-03-30T22:20:52.996Z,20.27
2019-03-30T22:23:22.974Z,25.53
2019-03-30T22:25:53.019Z,22.83
2019-03-30T22:28:23.062Z,20.53
2019-03-30T22:30:53.143Z,23.70
2019-03-30T22:33:23.182Z,21.33
2019-03-30T22:35:53.118Z,19.00
2019-03-30T22:38:23.128Z,23.93
2019-03-30T22:40:53.138Z,21.87
2019-03-30T22:43:23.164Z,19.10
2019-03-30T22:45:53.097Z,21.70
2019-03-30T22:48:23.192Z,28.37
2019-03-30T22:50:53.230Z,26.73
2019-03-30T22:53:23.269Z,19.00
2019-03-30T22:55:53.240Z,21.50
2019-03-30T22:58:23.276Z,23.20
2019-03-30T23:01:06.253Z,23.10
2019-03-30T23:03:36.276Z,24.20
2019-03-30T23:06:06.239Z,23.47
2019-03-30T23:08:36.225Z,23.73
2019-03-30T23:11:06.229Z,21.00
2019-03-30T23:13:36.213Z,20.00
2019-03-30T23:16:06.233Z,22.77
2019-03-30T23:18:36.269Z,20.67
2019-03-30T23:21:06.260Z,21.03
2019-03-30T23:23:36.200Z,24.50
2019-03-30T23:26:06.212Z,22.40
2019-03-30T23:28:36.977Z,19.73
2019-03-30T23:31:07.097Z,24.23
2019-03-30T23:33:37.022Z,26.87
2019-03-30T23:36:06.957Z,23.27
2019-03-30T23:38:36.990Z,19.73
2019-03-30T23:41:06.928Z,22.35
2019-03-30T23:43:36.889Z,23.10
2019-03-30T23:46:06.892Z,21.95
2019-03-30T23:48:36.904Z,23.43
2019-03-30T23:51:06.847Z,19.97
2019-03-30T23:53:36.822Z,23.83
2019-03-30T23:56:21.548Z,20.25
2019-03-30T23:58:51.605Z,22.70
